createdAt,value
2019-04-25T00:00:51.438Z,12.50
2019-04-25T00:01:31.331Z,12.50
2019-04-25T00:02:11.567Z,12.40
2019-04-25T00:02:46.482Z,12.40
2019-04-25T00:03:22.334Z,12.40
2019-04-25T00:03:56.679Z,12.40
2019-04-25T00:04:31.507Z,12.40
2019-04-25T00:05:08.277Z,12.40
2019-04-25T00:05:43.524Z,12.40
2019-04-25T00:06:18.595Z,12.40
2019-04-25T00:06:53.318Z,12.40
2019-04-25T00:07:27.928Z,12.40
2019-04-25T00:08:02.020Z,12.40
2019-04-25T00:08:37.243Z,12.40
2019-04-25T00:09:16.421Z,12.40
2019-04-25T00:09:55.422Z,12.40
2019-04-25T00:10:29.791Z,12.40
2019-04-25T00:11:04.758Z,12.40
2019-04-25T00:11:39.345Z,12.40
2019-04-25T00:12:13.747Z,12.40
2019-04-25T00:12:48.238Z,12.40
2019-04-25T00:13:23.277Z,12.40
2019-04-25T00:13:57.327Z,12.40
2019-04-25T00:14:32.278Z,12.40
2019-04-25T00:15:07.387Z,12.40
2019-04-25T00:15:44.470Z,12.40
2019-04-25T00:16:19.682Z,12.30
2019-04-25T00:16:54.384Z,12.40
2019-04-25T00:17:28.613Z,12.40
2019-04-25T00:18:03.018Z,12.40
2019-04-25T00:18:38.509Z,12.40
2019-04-25T00:19:12.956Z,12.40
2019-04-25T00:19:47.507Z,12.40
2019-04-25T00:20:22.277Z,12.40
2019-04-25T00:21:01.431Z,12.30
2019-04-25T00:21:42.528Z,12.30
2019-04-25T00:22:41.154Z,12.30
2019-04-25T00:23:17.407Z,12.30
2019-04-25T00:23:55.145Z,12.30
2019-04-25T00:24:48.449Z,12.30
2019-04-25T00:25:45.415Z,12.30
2019-04-25T00:26:31.164Z,12.30
2019-04-25T00:27:05.728Z,12.30
2019-04-25T00:27:40.915Z,12.20
2019-04-25T00:28:15.910Z,12.20
2019-04-25T00:28:50.096Z,12.30
2019-04-25T00:29:24.489Z,12.30
2019-04-25T00:29:58.796Z,12.30
2019-04-25T00:30:33.223Z,12.30
2019-04-25T00:31:07.697Z,12.40
2019-04-25T00:31:43.684Z,12.30
2019-04-25T00:32:17.824Z,12.40
2019-04-25T00:32:51.982Z,12.40
2019-04-25T00:33:26.303Z,12.40
2019-04-25T00:34:02.071Z,12.40
2019-04-25T00:34:36.592Z,12.40
2019-04-25T00:35:11.809Z,12.40
2019-04-25T00:35:46.182Z,12.40
2019-04-25T00:36:21.822Z,12.50
2019-04-25T00:36:56.121Z,12.50
2019-04-25T00:37:32.205Z,12.50
2019-04-25T00:38:06.627Z,12.50
2019-04-25T00:38:42.927Z,12.50
2019-04-25T00:39:16.894Z,12.50
2019-04-25T00:39:51.719Z,12.60
2019-04-25T00:40:26.052Z,12.60
2019-04-25T00:41:01.671Z,12.60
2019-04-25T00:41:36.126Z,12.60
2019-04-25T00:42:12.111Z,12.60
2019-04-25T00:42:46.463Z,12.70
2019-04-25T00:43:21.477Z,12.70
2019-04-25T00:43:56.061Z,12.70
2019-04-25T00:44:31.803Z,12.70
2019-04-25T00:45:06.649Z,12.60
2019-04-25T00:45:42.400Z,12.60
2019-04-25T00:46:16.818Z,12.70
2019-04-25T00:46:54.881Z,12.70
2019-04-25T00:47:27.012Z,12.60
2019-04-25T00:48:04.031Z,12.70
2019-04-25T00:48:37.013Z,12.70
2019-04-25T00:49:12.264Z,12.60
2019-04-25T00:49:46.637Z,12.60
2019-04-25T00:50:21.930Z,12.60
2019-04-25T00:50:56.255Z,12.60
2019-04-25T00:51:31.780Z,12.60
2019-04-25T00:52:06.207Z,12.60
2019-04-25T00:52:42.378Z,12.60
2019-04-25T00:53:16.347Z,12.60
2019-04-25T00:53:53.683Z,12.60
2019-04-25T00:54:26.391Z,12.60
2019-04-25T00:55:01.870Z,12.60
2019-04-25T00:55:36.253Z,12.60
2019-04-25T00:56:11.262Z,12.60
2019-04-25T00:56:47.794Z,12.60
2019-04-25T00:57:22.075Z,12.60
2019-04-25T00:58:03.372Z,12.60
2019-04-25T00:58:45.366Z,12.60
2019-04-25T00:59:32.067Z,12.60
2019-04-25T01:00:30.360Z,12.60
2019-04-25T01:01:23.659Z,12.60
2019-04-25T01:02:19.308Z,12.60
2019-04-25T01:02:54.586Z,12.50
2019-04-25T01:03:31.686Z,12.50
2019-04-25T01:04:06.136Z,12.50
2019-04-25T01:04:41.847Z,12.50
2019-04-25T01:05:16.172Z,12.60
2019-04-25T01:05:52.408Z,12.60
2019-04-25T01:06:26.565Z,12.50
2019-04-25T01:07:01.486Z,12.50
2019-04-25T01:07:35.751Z,12.50
2019-04-25T01:08:11.961Z,12.50
2019-04-25T01:08:45.919Z,12.50
2019-04-25T01:09:22.268Z,12.50
2019-04-25T01:09:56.396Z,12.50
2019-04-25T01:10:31.593Z,12.50
2019-04-25T01:11:05.832Z,12.50
2019-04-25T01:11:40.070Z,12.60
2019-04-25T01:12:15.579Z,12.60
2019-04-25T01:12:50.716Z,12.50
2019-04-25T01:13:25.855Z,12.50
2019-04-25T01:14:00.005Z,12.50
2019-04-25T01:14:34.301Z,12.50
2019-04-25T01:15:11.610Z,12.50
2019-04-25T01:15:46.404Z,12.50
2019-04-25T01:16:21.959Z,12.50
2019-04-25T01:16:56.387Z,12.50
2019-04-25T01:17:31.516Z,12.50
2019-04-25T01:18:05.770Z,12.50
2019-04-25T01:18:40.070Z,12.50
2019-04-25T01:19:14.412Z,12.50
2019-04-25T01:19:48.941Z,12.40
2019-04-25T01:20:23.975Z,12.50
2019-04-25T01:20:58.475Z,12.50
2019-04-25T01:21:33.996Z,12.50
2019-04-25T01:22:08.664Z,12.40
2019-04-25T01:22:44.075Z,12.40
2019-04-25T01:23:18.351Z,12.40
2019-04-25T01:23:53.692Z,12.40
2019-04-25T01:24:31.602Z,12.40
2019-04-25T01:25:06.819Z,12.40
2019-04-25T01:25:44.277Z,12.30
2019-04-25T01:26:17.702Z,12.30
2019-04-25T01:26:53.618Z,12.40
2019-04-25T01:27:28.263Z,12.30
2019-04-25T01:28:03.244Z,12.40
2019-04-25T01:28:37.800Z,12.30
2019-04-25T01:29:13.496Z,12.30
2019-04-25T01:29:48.117Z,12.30
2019-04-25T01:30:24.650Z,12.30
2019-04-25T01:30:59.461Z,12.30
2019-04-25T01:31:33.897Z,12.20
2019-04-25T01:32:09.137Z,12.20
2019-04-25T01:32:44.665Z,12.20
2019-04-25T01:33:19.469Z,12.20
2019-04-25T01:33:54.599Z,12.20
2019-04-25T01:34:48.871Z,12.20
2019-04-25T01:35:43.057Z,12.20
2019-04-25T01:36:37.207Z,12.20
2019-04-25T01:37:18.503Z,12.20
2019-04-25T01:38:10.511Z,12.20
2019-04-25T01:38:53.076Z,12.20
2019-04-25T01:39:37.280Z,12.10
2019-04-25T01:40:30.640Z,12.20
2019-04-25T01:41:24.406Z,12.10
2019-04-25T01:42:17.692Z,12.10
2019-04-25T01:43:11.151Z,12.10
2019-04-25T01:43:56.623Z,12.10
2019-04-25T01:44:34.030Z,12.10
2019-04-25T01:45:08.790Z,12.00
2019-04-25T01:45:43.799Z,12.00
2019-04-25T01:46:18.471Z,12.00
2019-04-25T01:46:54.477Z,12.00
2019-04-25T01:47:28.965Z,12.00
2019-04-25T01:48:03.589Z,12.00
2019-04-25T01:48:37.942Z,12.00
2019-04-25T01:49:13.915Z,12.00
2019-04-25T01:49:48.845Z,12.00
2019-04-25T01:50:23.336Z,12.00
2019-04-25T01:50:58.510Z,12.00
2019-04-25T01:51:33.945Z,12.00
2019-04-25T01:52:08.438Z,12.00
2019-04-25T01:52:43.420Z,12.00
2019-04-25T01:53:17.782Z,12.10
2019-04-25T01:53:53.051Z,12.00
2019-04-25T01:54:28.174Z,12.00
2019-04-25T01:55:03.468Z,12.10
2019-04-25T01:55:50.959Z,12.00
2019-04-25T01:56:15.104Z,12.00
2019-04-25T01:56:49.639Z,12.00
2019-04-25T01:57:24.020Z,12.00
2019-04-25T01:57:59.350Z,12.00
2019-04-25T01:58:33.829Z,12.00
2019-04-25T01:59:08.112Z,12.10
2019-04-25T01:59:43.859Z,12.00
2019-04-25T02:00:23.609Z,12.00
2019-04-25T02:00:58.598Z,12.00
2019-04-25T02:01:34.066Z,12.00
2019-04-25T02:02:10.114Z,12.00
2019-04-25T02:02:44.206Z,12.00
2019-04-25T02:03:18.544Z,12.00
2019-04-25T02:03:54.317Z,12.00
2019-04-25T02:04:28.901Z,12.00
2019-04-25T02:05:05.121Z,12.00
2019-04-25T02:05:39.509Z,12.00
2019-04-25T02:06:13.982Z,12.00
2019-04-25T02:06:48.333Z,12.00
2019-04-25T02:07:23.383Z,12.00
2019-04-25T02:07:57.650Z,12.00
2019-04-25T02:08:31.879Z,12.00
2019-04-25T02:09:10.394Z,12.00
2019-04-25T02:09:45.092Z,12.00
2019-04-25T02:10:19.902Z,12.10
2019-04-25T02:11:04.763Z,12.10
2019-04-25T02:11:45.470Z,12.10
2019-04-25T02:12:25.768Z,12.10
2019-04-25T02:13:03.807Z,12.10
2019-04-25T02:13:37.924Z,12.10
2019-04-25T02:14:13.605Z,12.10
2019-04-25T02:14:48.026Z,12.10
2019-04-25T02:15:25.470Z,12.20
2019-04-25T02:15:59.624Z,12.10
2019-04-25T02:16:35.333Z,12.10
2019-04-25T02:17:09.685Z,12.10
2019-04-25T02:17:43.993Z,12.10
2019-04-25T02:18:18.342Z,12.10
2019-04-25T02:18:54.216Z,12.10
2019-04-25T02:19:28.389Z,12.10
2019-04-25T02:20:04.209Z,12.20
2019-04-25T02:20:38.593Z,12.20
2019-04-25T02:21:13.759Z,12.20
2019-04-25T02:21:48.152Z,12.20
2019-04-25T02:22:22.244Z,12.20
2019-04-25T02:22:56.567Z,12.20
2019-04-25T02:23:30.673Z,12.20
2019-04-25T02:24:05.679Z,12.20
2019-04-25T02:24:40.142Z,12.20
2019-04-25T02:25:14.309Z,12.20
2019-04-25T02:25:48.757Z,12.20
2019-04-25T02:26:24.073Z,12.20
2019-04-25T02:26:58.788Z,12.20
2019-04-25T02:27:34.262Z,12.10
2019-04-25T02:28:08.671Z,12.20
2019-04-25T02:28:43.716Z,12.10
2019-04-25T02:29:18.211Z,12.10
2019-04-25T02:29:52.957Z,12.20
2019-04-25T02:30:28.336Z,12.20
2019-04-25T02:31:08.165Z,12.20
2019-04-25T02:31:38.570Z,12.20
2019-04-25T02:32:14.642Z,12.20
2019-04-25T02:32:48.956Z,12.20
2019-04-25T02:33:24.192Z,12.20
2019-04-25T02:34:00.743Z,12.20
2019-04-25T02:34:34.868Z,12.20
2019-04-25T02:35:10.066Z,12.20
2019-04-25T02:35:46.788Z,12.20
2019-04-25T02:36:20.196Z,12.20
2019-04-25T02:36:58.867Z,12.20
2019-04-25T02:37:30.484Z,12.20
2019-04-25T02:38:08.911Z,12.20
2019-04-25T02:38:40.913Z,12.20
2019-04-25T02:39:19.508Z,12.20
2019-04-25T02:39:56.660Z,12.20
2019-04-25T02:40:29.792Z,12.20
2019-04-25T02:41:08.382Z,12.20
2019-04-25T02:41:40.298Z,12.20
2019-04-25T02:42:16.895Z,12.20
2019-04-25T02:42:50.649Z,12.10
2019-04-25T02:43:25.019Z,12.10
2019-04-25T02:44:03.706Z,12.20
2019-04-25T02:44:37.223Z,12.20
2019-04-25T02:45:30.813Z,12.20
2019-04-25T02:46:25.171Z,12.10
2019-04-25T02:47:14.647Z,12.10
2019-04-25T02:48:07.034Z,12.20
2019-04-25T02:49:02.657Z,12.10
2019-04-25T02:49:55.812Z,12.10
2019-04-25T02:50:45.879Z,12.10
2019-04-25T02:51:24.657Z,12.10
2019-04-25T02:52:06.947Z,12.10
2019-04-25T02:52:41.712Z,12.10
2019-04-25T02:53:37.304Z,12.10
2019-04-25T02:54:11.047Z,12.10
2019-04-25T02:54:45.299Z,12.10
2019-04-25T02:55:30.887Z,12.10
2019-04-25T02:55:56.399Z,12.10
2019-04-25T02:56:37.669Z,12.10
2019-04-25T02:57:08.318Z,12.10
2019-04-25T02:57:44.699Z,12.10
2019-04-25T02:58:18.812Z,12.10
2019-04-25T02:58:54.265Z,12.10
2019-04-25T02:59:29.057Z,12.10
2019-04-25T03:00:07.318Z,12.10
2019-04-25T03:00:55.077Z,12.10
2019-04-25T03:01:22.329Z,12.10
2019-04-25T03:01:54.207Z,12.10
2019-04-25T03:02:28.745Z,12.10
2019-04-25T03:03:05.656Z,12.10
2019-04-25T03:03:39.382Z,12.10
2019-04-25T03:04:14.561Z,12.10
2019-04-25T03:04:48.859Z,12.10
2019-04-25T03:05:25.429Z,12.10
2019-04-25T03:05:59.644Z,12.10
2019-04-25T03:06:35.141Z,12.00
2019-04-25T03:07:11.260Z,12.10
2019-04-25T03:07:45.728Z,12.00
2019-04-25T03:08:20.195Z,12.00
2019-04-25T03:08:54.764Z,12.00
2019-04-25T03:09:29.218Z,12.00
2019-04-25T03:10:07.675Z,12.00
2019-04-25T03:10:40.337Z,12.00
2019-04-25T03:11:15.121Z,12.00
2019-04-25T03:11:49.553Z,11.90
2019-04-25T03:12:32.511Z,11.90
2019-04-25T03:13:00.756Z,11.90
2019-04-25T03:13:36.463Z,11.90
2019-04-25T03:14:10.829Z,11.90
2019-04-25T03:14:45.453Z,11.90
2019-04-25T03:15:19.974Z,11.90
2019-04-25T03:15:55.683Z,11.90
2019-04-25T03:16:30.233Z,11.90
2019-04-25T03:17:06.926Z,11.90
2019-04-25T03:17:40.738Z,12.00
2019-04-25T03:18:16.714Z,12.00
2019-04-25T03:18:59.445Z,12.00
2019-04-25T03:19:55.184Z,12.00
2019-04-25T03:20:35.848Z,11.90
2019-04-25T03:21:17.445Z,11.90
2019-04-25T03:21:54.962Z,11.90
2019-04-25T03:22:29.763Z,11.90
2019-04-25T03:23:14.530Z,11.90
2019-04-25T03:23:49.465Z,11.90
2019-04-25T03:24:25.033Z,11.90
2019-04-25T03:25:01.799Z,11.90
2019-04-25T03:25:36.308Z,11.90
2019-04-25T03:26:10.717Z,11.90
2019-04-25T03:26:45.021Z,12.00
2019-04-25T03:27:19.253Z,12.00
2019-04-25T03:27:54.071Z,12.00
2019-04-25T03:28:28.668Z,12.00
2019-04-25T03:29:04.665Z,12.10
2019-04-25T03:29:39.265Z,12.10
2019-04-25T03:30:17.405Z,12.10
2019-04-25T03:30:50.039Z,12.10
2019-04-25T03:31:27.214Z,12.10
2019-04-25T03:32:00.928Z,12.10
2019-04-25T03:32:36.749Z,12.20
2019-04-25T03:33:18.167Z,12.20
2019-04-25T03:33:47.118Z,12.20
2019-04-25T03:34:21.285Z,12.20
2019-04-25T03:34:55.817Z,12.20
2019-04-25T03:35:30.218Z,12.30
2019-04-25T03:36:06.458Z,12.30
2019-04-25T03:36:41.289Z,12.30
2019-04-25T03:37:15.902Z,12.30
2019-04-25T03:37:50.413Z,12.30
2019-04-25T03:38:24.965Z,12.40
2019-04-25T03:38:59.031Z,12.40
2019-04-25T03:39:33.648Z,12.40
2019-04-25T03:40:09.598Z,12.40
2019-04-25T03:40:44.022Z,12.40
2019-04-25T03:41:18.585Z,12.40
2019-04-25T03:41:53.949Z,12.40
2019-04-25T03:42:28.492Z,12.40
2019-04-25T03:43:04.774Z,12.40
2019-04-25T03:43:38.662Z,12.50
2019-04-25T03:44:13.961Z,12.50
2019-04-25T03:44:48.299Z,12.50
2019-04-25T03:45:23.687Z,12.40
2019-04-25T03:45:58.153Z,12.40
2019-04-25T03:46:33.383Z,12.50
2019-04-25T03:47:08.607Z,12.40
2019-04-25T03:47:43.302Z,12.50
2019-04-25T03:48:17.650Z,12.50
2019-04-25T03:48:52.025Z,12.50
2019-04-25T03:49:26.426Z,12.50
2019-04-25T03:50:01.576Z,12.50
2019-04-25T03:50:37.095Z,12.50
2019-04-25T03:51:12.249Z,12.50
2019-04-25T03:51:47.619Z,12.50
2019-04-25T03:52:23.763Z,12.50
2019-04-25T03:52:58.178Z,12.50
2019-04-25T03:53:33.792Z,12.60
2019-04-25T03:54:09.330Z,12.60
2019-04-25T03:54:44.287Z,12.60
2019-04-25T03:55:18.679Z,12.70
2019-04-25T03:55:54.034Z,12.60
2019-04-25T03:56:28.517Z,12.60
2019-04-25T03:57:05.294Z,12.60
2019-04-25T03:57:38.943Z,12.70
2019-04-25T03:58:14.618Z,12.70
2019-04-25T03:58:49.037Z,12.70
2019-04-25T03:59:23.745Z,12.70
2019-04-25T03:59:58.157Z,12.80
2019-04-25T04:00:34.222Z,12.80
2019-04-25T04:01:09.616Z,12.80
2019-04-25T04:01:44.118Z,12.90
2019-04-25T04:02:18.285Z,12.90
2019-04-25T04:02:53.754Z,12.90
2019-04-25T04:03:28.649Z,12.90
2019-04-25T04:04:04.618Z,12.90
2019-04-25T04:04:39.003Z,13.00
2019-04-25T04:05:14.821Z,13.00
2019-04-25T04:05:49.770Z,13.00
2019-04-25T04:06:24.391Z,13.10
2019-04-25T04:06:58.650Z,13.10
2019-04-25T04:07:33.715Z,13.10
2019-04-25T04:08:08.173Z,13.20
2019-04-25T04:08:44.114Z,13.20
2019-04-25T04:09:18.657Z,13.30
2019-04-25T04:09:53.244Z,13.30
2019-04-25T04:10:29.432Z,13.30
2019-04-25T04:11:05.333Z,13.30
2019-04-25T04:11:40.012Z,13.40
2019-04-25T04:12:14.815Z,13.40
2019-04-25T04:12:49.906Z,13.40
2019-04-25T04:13:24.441Z,13.40
2019-04-25T04:13:58.821Z,13.50
2019-04-25T04:14:33.817Z,13.50
2019-04-25T04:15:08.781Z,13.60
2019-04-25T04:15:43.360Z,13.60
2019-04-25T04:16:20.881Z,13.70
2019-04-25T04:17:15.110Z,13.70
2019-04-25T04:17:55.181Z,13.70
2019-04-25T04:18:48.583Z,13.80
2019-04-25T04:19:24.018Z,13.80
2019-04-25T04:20:17.697Z,13.90
2019-04-25T04:20:58.759Z,13.90
2019-04-25T04:21:48.633Z,14.00
2019-04-25T04:22:35.881Z,14.00
2019-04-25T04:23:17.725Z,14.10
2019-04-25T04:24:11.746Z,14.10
2019-04-25T04:24:50.080Z,14.20
2019-04-25T04:25:24.523Z,14.30
2019-04-25T04:25:58.763Z,14.30
2019-04-25T04:26:33.288Z,14.30
2019-04-25T04:27:14.115Z,14.30
2019-04-25T04:27:48.706Z,14.40
2019-04-25T04:28:23.657Z,14.40
2019-04-25T04:28:58.352Z,14.50
2019-04-25T04:29:33.182Z,14.50
2019-04-25T04:30:08.091Z,14.60
2019-04-25T04:30:43.607Z,14.60
2019-04-25T04:31:18.033Z,14.60
2019-04-25T04:31:52.877Z,14.70
2019-04-25T04:32:28.163Z,14.70
2019-04-25T04:33:03.624Z,14.80
2019-04-25T04:33:38.588Z,14.80
2019-04-25T04:34:14.369Z,14.90
2019-04-25T04:34:48.927Z,14.90
2019-04-25T04:35:23.570Z,14.90
2019-04-25T04:35:57.958Z,15.00
2019-04-25T04:36:33.749Z,15.00
2019-04-25T04:37:08.965Z,15.10
2019-04-25T04:37:43.535Z,15.10
2019-04-25T04:38:18.130Z,15.10
2019-04-25T04:38:54.225Z,15.20
2019-04-25T04:39:28.520Z,15.20
2019-04-25T04:40:03.587Z,15.30
2019-04-25T04:40:38.233Z,15.30
2019-04-25T04:41:14.280Z,15.30
2019-04-25T04:41:48.600Z,15.40
2019-04-25T04:42:23.735Z,15.40
2019-04-25T04:42:58.111Z,15.40
2019-04-25T04:43:34.103Z,15.50
2019-04-25T04:44:08.706Z,15.40
2019-04-25T04:44:43.720Z,15.50
2019-04-25T04:45:18.450Z,15.50
2019-04-25T04:45:54.090Z,15.50
2019-04-25T04:46:28.676Z,15.60
2019-04-25T04:47:04.060Z,15.60
2019-04-25T04:47:38.381Z,15.60
2019-04-25T04:48:14.234Z,15.60
2019-04-25T04:48:48.938Z,15.60
2019-04-25T04:49:23.815Z,15.60
2019-04-25T04:49:58.289Z,15.70
2019-04-25T04:50:33.652Z,15.70
2019-04-25T04:51:08.937Z,15.70
2019-04-25T04:51:44.394Z,15.80
2019-04-25T04:52:18.929Z,15.80
2019-04-25T04:52:53.992Z,15.80
2019-04-25T04:53:28.396Z,15.80
2019-04-25T04:54:03.415Z,15.80
2019-04-25T04:54:37.861Z,15.90
2019-04-25T04:55:14.634Z,15.90
2019-04-25T04:55:48.429Z,16.00
2019-04-25T04:56:23.911Z,16.00
2019-04-25T04:56:58.917Z,16.10
2019-04-25T04:57:36.111Z,16.10
2019-04-25T04:58:09.250Z,16.10
2019-04-25T04:58:43.554Z,16.10
2019-04-25T04:59:18.596Z,16.20
2019-04-25T04:59:53.567Z,16.20
2019-04-25T05:00:28.494Z,16.30
2019-04-25T05:01:03.680Z,16.30
2019-04-25T05:01:55.582Z,16.40
2019-04-25T05:02:48.474Z,16.40
2019-04-25T05:03:36.479Z,16.50
2019-04-25T05:04:17.150Z,16.60
2019-04-25T05:05:10.621Z,16.60
2019-04-25T05:05:59.235Z,16.70
2019-04-25T05:06:53.711Z,16.80
2019-04-25T05:07:47.426Z,16.80
2019-04-25T05:08:27.582Z,16.90
2019-04-25T05:09:22.341Z,16.90
2019-04-25T05:09:57.115Z,16.90
2019-04-25T05:10:33.187Z,17.00
2019-04-25T05:11:07.534Z,17.00
2019-04-25T05:11:41.717Z,17.10
2019-04-25T05:12:16.229Z,17.10
2019-04-25T05:12:50.484Z,17.10
2019-04-25T05:13:24.707Z,17.20
2019-04-25T05:13:58.881Z,17.10
2019-04-25T05:14:33.718Z,17.20
2019-04-25T05:15:09.041Z,17.20
2019-04-25T05:15:44.584Z,17.30
2019-04-25T05:16:19.845Z,17.30
2019-04-25T05:16:54.172Z,17.30
2019-04-25T05:17:28.438Z,17.40
2019-04-25T05:18:04.020Z,17.50
2019-04-25T05:18:40.089Z,17.50
2019-04-25T05:19:15.529Z,17.60
2019-04-25T05:19:50.773Z,17.70
2019-04-25T05:20:25.192Z,17.70
2019-04-25T05:20:59.479Z,17.80
2019-04-25T05:21:33.768Z,17.90
2019-04-25T05:22:08.084Z,18.00
2019-04-25T05:22:42.373Z,18.10
2019-04-25T05:23:17.141Z,18.20
2019-04-25T05:23:51.422Z,18.30
2019-04-25T05:24:26.390Z,18.40
2019-04-25T05:25:01.147Z,18.50
2019-04-25T05:25:35.359Z,18.50
2019-04-25T05:26:09.724Z,18.70
2019-04-25T05:26:44.100Z,18.70
2019-04-25T05:27:32.243Z,18.80
2019-04-25T05:28:02.905Z,18.80
2019-04-25T05:28:30.963Z,18.90
2019-04-25T05:29:05.412Z,19.00
2019-04-25T05:29:39.887Z,19.10
2019-04-25T05:30:19.158Z,19.00
2019-04-25T05:31:09.084Z,19.10
2019-04-25T05:31:48.961Z,19.10
2019-04-25T05:32:24.962Z,19.20
2019-04-25T05:32:59.666Z,19.20
2019-04-25T05:33:33.918Z,19.30
2019-04-25T05:34:08.282Z,19.30
2019-04-25T05:34:44.094Z,19.30
2019-04-25T05:35:18.715Z,19.40
2019-04-25T05:35:53.906Z,19.50
2019-04-25T05:36:37.627Z,19.50
2019-04-25T05:37:14.378Z,19.60
2019-04-25T05:37:48.362Z,19.70
2019-04-25T05:38:24.322Z,19.80
2019-04-25T05:38:58.880Z,19.70
2019-04-25T05:39:33.504Z,19.80
2019-04-25T05:40:08.186Z,19.90
2019-04-25T05:40:53.935Z,19.90
2019-04-25T05:41:37.565Z,20.00
2019-04-25T05:42:26.171Z,20.20
2019-04-25T05:43:10.430Z,20.30
2019-04-25T05:43:44.783Z,20.40
2019-04-25T05:44:19.382Z,20.30
2019-04-25T05:44:54.153Z,20.40
2019-04-25T05:45:29.589Z,20.50
2019-04-25T05:46:03.834Z,20.50
2019-04-25T05:46:38.225Z,20.60
2019-04-25T05:47:15.071Z,20.70
2019-04-25T05:47:51.885Z,20.80
2019-04-25T05:48:26.404Z,20.90
2019-04-25T05:49:00.859Z,21.00
2019-04-25T05:49:35.405Z,21.10
2019-04-25T05:50:10.038Z,21.10
2019-04-25T05:50:44.481Z,21.00
2019-04-25T05:51:19.525Z,21.10
2019-04-25T05:51:54.001Z,21.10
2019-04-25T05:52:28.370Z,21.00
2019-04-25T05:53:04.305Z,21.00
2019-04-25T05:53:38.630Z,21.00
2019-04-25T05:54:14.078Z,21.00
2019-04-25T05:54:48.641Z,21.10
2019-04-25T05:55:24.152Z,21.20
2019-04-25T05:55:59.116Z,21.20
2019-04-25T05:56:33.777Z,21.10
2019-04-25T05:57:08.459Z,21.00
2019-04-25T05:57:47.425Z,21.00
2019-04-25T05:58:19.073Z,20.80
2019-04-25T05:58:53.346Z,20.80
2019-04-25T05:59:28.010Z,20.70
2019-04-25T06:00:03.660Z,20.70
2019-04-25T06:00:38.126Z,20.60
2019-04-25T06:01:13.397Z,20.70
2019-04-25T06:01:51.160Z,20.60
2019-04-25T06:02:26.519Z,20.60
2019-04-25T06:03:01.054Z,20.60
2019-04-25T06:03:35.752Z,20.70
2019-04-25T06:04:10.125Z,20.70
2019-04-25T06:04:44.482Z,20.80
2019-04-25T06:05:19.099Z,20.90
2019-04-25T06:05:53.861Z,21.10
2019-04-25T06:06:28.298Z,21.30
2019-04-25T06:07:02.572Z,21.40
2019-04-25T06:07:37.047Z,21.60
2019-04-25T06:08:11.357Z,21.80
2019-04-25T06:08:52.083Z,21.90
2019-04-25T06:09:45.658Z,22.10
2019-04-25T06:10:34.542Z,22.20
2019-04-25T06:11:25.090Z,22.40
2019-04-25T06:12:19.837Z,22.40
2019-04-25T06:13:13.910Z,22.50
2019-04-25T06:13:56.223Z,22.60
2019-04-25T06:14:30.562Z,22.60
2019-04-25T06:15:05.815Z,22.70
2019-04-25T06:15:40.189Z,22.60
2019-04-25T06:16:28.593Z,22.70
2019-04-25T06:17:06.843Z,22.80
2019-04-25T06:18:00.307Z,22.90
2019-04-25T06:18:40.674Z,23.10
2019-04-25T06:19:22.007Z,23.10
2019-04-25T06:19:57.139Z,23.20
2019-04-25T06:20:34.850Z,23.10
2019-04-25T06:21:10.293Z,23.20
2019-04-25T06:21:44.661Z,23.20
2019-04-25T06:22:24.668Z,23.10
2019-04-25T06:23:09.621Z,22.90
2019-04-25T06:23:52.050Z,22.60
2019-04-25T06:24:34.331Z,22.30
2019-04-25T06:25:13.770Z,22.10
2019-04-25T06:25:46.210Z,22.00
2019-04-25T06:26:31.021Z,21.90
2019-04-25T06:27:15.978Z,21.90
2019-04-25T06:27:57.267Z,21.80
2019-04-25T06:28:29.169Z,21.70
2019-04-25T06:29:03.491Z,21.60
2019-04-25T06:29:37.843Z,21.70
2019-04-25T06:30:18.047Z,21.60
2019-04-25T06:30:53.997Z,21.60
2019-04-25T06:31:29.283Z,21.60
2019-04-25T06:32:08.035Z,21.60
2019-04-25T06:32:39.684Z,21.60
2019-04-25T06:33:14.253Z,21.80
2019-04-25T06:33:48.860Z,22.00
2019-04-25T06:34:25.411Z,22.20
2019-04-25T06:34:59.246Z,22.40
2019-04-25T06:35:35.919Z,22.60
2019-04-25T06:36:10.449Z,22.60
2019-04-25T06:36:45.048Z,22.90
2019-04-25T06:37:24.294Z,23.00
2019-04-25T06:37:58.363Z,23.10
2019-04-25T06:38:33.495Z,23.30
2019-04-25T06:39:09.101Z,23.40
2019-04-25T06:39:44.268Z,23.40
2019-04-25T06:40:20.703Z,23.50
2019-04-25T06:40:55.080Z,23.40
2019-04-25T06:41:29.323Z,23.40
2019-04-25T06:42:04.079Z,23.40
2019-04-25T06:42:39.857Z,23.50
2019-04-25T06:43:14.463Z,23.50
2019-04-25T06:43:50.428Z,23.70
2019-04-25T06:44:36.305Z,23.70
2019-04-25T06:45:22.218Z,23.60
2019-04-25T06:46:17.037Z,23.70
2019-04-25T06:47:03.378Z,23.90
2019-04-25T06:47:44.263Z,24.00
2019-04-25T06:48:27.241Z,24.10
2019-04-25T06:49:09.784Z,24.30
2019-04-25T06:49:44.505Z,24.30
2019-04-25T06:50:18.862Z,24.00
2019-04-25T06:50:53.734Z,24.30
2019-04-25T06:51:47.386Z,24.40
2019-04-25T06:52:24.621Z,24.50
2019-04-25T06:52:57.924Z,24.60
2019-04-25T06:53:34.493Z,24.70
2019-04-25T06:54:08.741Z,24.60
2019-04-25T06:54:43.701Z,24.70
2019-04-25T06:55:20.920Z,24.70
2019-04-25T06:55:55.063Z,24.60
2019-04-25T06:56:29.539Z,24.70
2019-04-25T06:57:04.549Z,24.80
2019-04-25T06:57:39.145Z,24.70
2019-04-25T06:58:14.573Z,24.70
2019-04-25T06:58:49.258Z,24.60
2019-04-25T06:59:25.962Z,24.60
2019-04-25T06:59:59.889Z,24.40
2019-04-25T07:00:40.944Z,24.40
2019-04-25T07:01:10.657Z,24.50
2019-04-25T07:01:45.273Z,24.30
2019-04-25T07:02:19.552Z,24.10
2019-04-25T07:02:53.782Z,24.20
2019-04-25T07:03:28.093Z,24.40
2019-04-25T07:04:03.989Z,24.50
2019-04-25T07:04:38.682Z,24.50
2019-04-25T07:05:26.159Z,24.60
2019-04-25T07:05:50.032Z,24.50
2019-04-25T07:06:25.238Z,24.50
2019-04-25T07:07:10.539Z,24.80
2019-04-25T07:07:36.534Z,24.90
2019-04-25T07:08:11.041Z,25.00
2019-04-25T07:08:45.364Z,25.10
2019-04-25T07:09:19.827Z,25.20
2019-04-25T07:09:54.172Z,25.30
2019-04-25T07:10:29.443Z,25.60
2019-04-25T07:11:04.334Z,25.60
2019-04-25T07:11:39.011Z,25.40
2019-04-25T07:12:13.665Z,25.40
2019-04-25T07:12:48.143Z,25.20
2019-04-25T07:13:24.779Z,25.50
2019-04-25T07:13:58.871Z,25.70
2019-04-25T07:14:33.843Z,25.80
2019-04-25T07:15:10.630Z,25.80
2019-04-25T07:15:45.253Z,25.80
2019-04-25T07:16:19.477Z,25.90
2019-04-25T07:16:53.788Z,25.90
2019-04-25T07:17:28.296Z,26.00
2019-04-25T07:18:03.820Z,26.00
2019-04-25T07:18:38.370Z,26.00
2019-04-25T07:19:14.387Z,25.90
2019-04-25T07:19:49.061Z,25.90
2019-04-25T07:20:26.087Z,25.80
2019-04-25T07:20:59.812Z,25.50
2019-04-25T07:21:35.425Z,25.40
2019-04-25T07:22:10.106Z,25.50
2019-04-25T07:22:44.509Z,25.80
2019-04-25T07:23:18.919Z,25.90
2019-04-25T07:23:54.151Z,26.10
2019-04-25T07:24:29.075Z,26.20
2019-04-25T07:25:03.846Z,26.00
2019-04-25T07:25:41.782Z,26.00
2019-04-25T07:26:26.095Z,26.10
2019-04-25T07:27:19.871Z,26.10
2019-04-25T07:28:23.859Z,26.00
2019-04-25T07:29:08.613Z,26.10
2019-04-25T07:30:02.010Z,25.60
2019-04-25T07:30:52.168Z,25.70
2019-04-25T07:31:41.870Z,25.50
2019-04-25T07:32:30.821Z,25.40
2019-04-25T07:33:13.851Z,25.30
2019-04-25T07:33:55.546Z,25.20
2019-04-25T07:34:30.320Z,25.00
2019-04-25T07:35:05.501Z,25.00
2019-04-25T07:35:39.868Z,25.10
2019-04-25T07:36:15.633Z,25.20
2019-04-25T07:36:50.511Z,25.30
2019-04-25T07:37:25.966Z,25.40
2019-04-25T07:38:00.482Z,25.40
2019-04-25T07:38:35.043Z,25.30
2019-04-25T07:39:10.912Z,25.40
2019-04-25T07:39:45.353Z,25.50
2019-04-25T07:40:20.374Z,25.60
2019-04-25T07:40:54.911Z,25.60
2019-04-25T07:41:29.352Z,25.60
2019-04-25T07:42:04.220Z,25.70
2019-04-25T07:42:38.490Z,25.60
2019-04-25T07:43:13.440Z,25.60
2019-04-25T07:43:47.962Z,25.70
2019-04-25T07:44:35.318Z,25.60
2019-04-25T07:44:58.726Z,25.60
2019-04-25T07:45:34.558Z,25.70
2019-04-25T07:46:10.149Z,25.70
2019-04-25T07:46:44.603Z,25.70
2019-04-25T07:47:18.940Z,25.70
2019-04-25T07:47:54.164Z,25.80
2019-04-25T07:48:28.721Z,26.00
2019-04-25T07:49:03.488Z,26.00
2019-04-25T07:49:38.003Z,25.70
2019-04-25T07:50:13.961Z,25.80
2019-04-25T07:50:48.843Z,26.00
2019-04-25T07:51:23.704Z,26.00
2019-04-25T07:51:58.111Z,26.00
2019-04-25T07:52:33.580Z,25.70
2019-04-25T07:53:08.917Z,25.50
2019-04-25T07:53:43.729Z,25.50
2019-04-25T07:54:18.091Z,25.60
2019-04-25T07:54:53.906Z,25.70